Time;durP1;ratioP1;P1;durP2;ratioP2;P2;SDS_P1;SDS_P2;PMS_P1;PMS_P2;Temp;Humidity;BMP_temperature;BMP_pressure;BME280_temperature;BME280_humidity;BME280_pressure;Samples;Min_cycle;Max_cycle;Signal;HPM_P1;HPM_P2
2023/03/21 00:02:01;;;;;;;4.40;1.90;;;9.20;88.90;;;;;;4987669;28;87594;-70
2023/03/21 00:04:27;;;;;;;3.60;1.40;;;9.20;89.40;;;;;;4971304;28;87262;-70
2023/03/21 00:06:53;;;;;;;5.43;1.67;;;9.10;89.80;;;;;;4977594;28;87270;-70
2023/03/21 00:09:19;;;;;;;4.72;2.00;;;9.00;89.70;;;;;;4989099;28;89116;-70
2023/03/21 00:11:45;;;;;;;3.50;1.52;;;8.90;90.00;;;;;;4990540;28;88839;-70
2023/03/21 00:14:13;;;;;;;5.63;1.75;;;8.80;90.40;;;;;;4979100;28;88379;-70
2023/03/21 00:16:39;;;;;;;4.40;1.85;;;8.80;90.80;;;;;;4982159;28;87329;-70
2023/03/21 00:19:05;;;;;;;5.05;1.73;;;8.70;91.00;;;;;;4977923;28;88532;-69
2023/03/21 00:21:32;;;;;;;5.82;2.13;;;8.60;91.20;;;;;;4970398;28;88939;-72
2023/03/21 00:23:59;;;;;;;4.57;1.83;;;8.60;91.10;;;;;;4981642;28;87929;-69
2023/03/21 00:26:25;;;;;;;5.53;1.80;;;8.50;91.10;;;;;;4984567;28;87114;-70
2023/03/21 00:28:51;;;;;;;7.25;2.42;;;8.50;91.30;;;;;;4969044;28;88078;-69
2023/03/21 00:31:17;;;;;;;4.68;2.13;;;8.50;91.40;;;;;;4982947;28;87545;-72
2023/03/21 00:33:43;;;;;;;5.38;2.38;;;8.50;91.30;;;;;;4979152;28;88264;-71
2023/03/21 00:36:11;;;;;;;5.65;2.30;;;8.50;91.60;;;;;;4971532;28;87215;-72
2023/03/21 00:38:36;;;;;;;6.28;2.28;;;8.50;91.50;;;;;;4981170;28;88149;-71
2023/03/21 00:41:13;;;;;;;8.90;2.53;;;8.50;91.50;;;;;;4991940;28;89130;-72
2023/03/21 00:43:39;;;;;;;;;;;8.50;91.50;;;;;;4981149;28;87676;-72
2023/03/21 00:46:05;;;;;;;6.20;2.40;;;8.50;91.80;;;;;;4980024;28;87544;-72
2023/03/21 00:48:30;;;;;;;7.03;2.42;;;8.50;91.90;;;;;;4978353;28;87571;-72
2023/03/21 00:50:59;;;;;;;6.05;2.30;;;8.50;92.00;;;;;;4978430;28;87818;-72
2023/03/21 00:53:25;;;;;;;6.85;2.53;;;8.40;92.40;;;;;;4991334;28;87321;-72
2023/03/21 00:55:51;;;;;;;5.22;2.30;;;8.40;92.60;;;;;;4996962;28;87487;-72
2023/03/21 00:58:17;;;;;;;5.15;2.60;;;8.40;92.90;;;;;;4974847;28;88700;-72
2023/03/21 01:00:45;;;;;;;5.72;2.58;;;8.40;92.90;;;;;;4979080;28;88822;-72
2023/03/21 01:03:13;;;;;;;5.20;2.53;;;8.40;93.10;;;;;;4978184;28;87650;-72
2023/03/21 01:06:03;;;;;;;5.30;2.45;;;8.50;92.90;;;;;;4977330;28;87368;-73
2023/03/21 01:08:37;;;;;;;5.68;2.53;;;8.50;92.70;;;;;;4977941;28;87684;-72
2023/03/21 01:11:06;;;;;;;6.00;2.55;;;8.50;92.70;;;;;;4994366;28;87855;-71
2023/03/21 01:13:32;;;;;;;5.22;2.60;;;8.50;92.80;;;;;;4982329;28;87356;-73
2023/03/21 01:15:58;;;;;;;5.07;2.13;;;8.50;92.80;;;;;;4979981;28;86842;-72
2023/03/21 01:18:27;;;;;;;5.30;2.72;;;8.50;92.70;;;;;;4978242;28;88245;-72
2023/03/21 01:20:55;;;;;;;5.18;2.35;;;8.60;92.50;;;;;;4971383;28;87840;-71
2023/03/21 01:23:21;;;;;;;4.68;2.33;;;8.50;92.60;;;;;;4977692;28;88422;-71
2023/03/21 01:25:48;;;;;;;5.65;2.35;;;8.50;92.70;;;;;;4979522;28;87500;-70
2023/03/21 01:28:15;;;;;;;4.57;2.30;;;8.40;92.70;;;;;;4973508;28;88142;-73
2023/03/21 01:30:48;;;;;;;5.43;2.00;;;8.40;92.90;;;;;;4977172;28;88429;-71
2023/03/21 01:33:15;;;;;;;5.82;2.20;;;8.30;92.90;;;;;;4978875;28;87624;-72
2023/03/21 01:35:40;;;;;;;6.20;2.17;;;8.40;93.10;;;;;;4979006;28;87421;-71
2023/03/21 01:38:07;;;;;;;4.40;2.38;;;8.40;93.20;;;;;;4979879;28;87958;-71
2023/03/21 01:40:32;;;;;;;4.35;2.08;;;8.40;92.90;;;;;;4972247;28;87867;-72
2023/03/21 01:42:58;;;;;;;5.03;1.77;;;8.40;92.80;;;;;;4981410;28;87072;-70
2023/03/21 01:46:01;;;;;;;4.40;1.60;;;8.50;92.50;;;;;;4979217;28;87509;-68
2023/03/21 01:48:27;;;;;;;3.90;1.58;;;8.60;92.20;;;;;;4969067;28;89159;-70
2023/03/21 01:50:54;;;;;;;4.57;2.00;;;8.70;91.90;;;;;;4976101;28;88845;-70
2023/03/21 01:53:23;;;;;;;4.07;1.73;;;8.80;91.80;;;;;;4978294;28;87534;-69
2023/03/21 01:55:49;;;;;;;3.55;1.90;;;8.80;91.70;;;;;;4977892;28;87302;-71
2023/03/21 01:58:17;;;;;;;4.28;1.85;;;8.90;91.80;;;;;;4978156;28;88094;-72
2023/03/21 02:00:43;;;;;;;4.60;1.50;;;8.90;91.70;;;;;;4977906;28;87702;-71
2023/03/21 02:03:10;;;;;;;3.53;1.77;;;8.90;91.90;;;;;;4978085;28;87581;-73
2023/03/21 02:05:50;;;;;;;5.63;2.05;;;8.90;91.90;;;;;;4978712;28;86869;-71
2023/03/21 02:08:16;;;;;;;3.80;1.70;;;9.00;92.00;;;;;;4976496;28;88119;-72
2023/03/21 02:10:44;;;;;;;4.32;1.63;;;9.00;91.90;;;;;;4977521;28;87795;-72
2023/03/21 02:13:10;;;;;;;4.35;1.95;;;9.00;91.90;;;;;;4971115;28;88188;-69
2023/03/21 02:15:46;;;;;;;6.80;2.13;;;9.00;92.00;;;;;;4977101;28;87109;-70
2023/03/21 02:18:39;;;;;;;5.40;2.00;;;9.00;92.10;;;;;;4975354;28;88046;-72
2023/03/21 02:21:49;;;;;;;6.40;2.00;;;8.90;92.20;;;;;;4981091;28;87656;-70
2023/03/21 02:24:26;;;;;;;6.25;1.50;;;8.90;92.20;;;;;;4978209;28;87675;-70
2023/03/21 02:26:58;;;;;;;4.75;1.58;;;8.90;92.10;;;;;;4973592;28;87340;-72
2023/03/21 02:29:33;;;;;;;5.90;1.88;;;8.90;92.10;;;;;;4987261;28;88355;-72
2023/03/21 02:32:37;;;;;;;4.57;2.10;;;8.90;92.10;;;;;;4981025;28;87784;-73
2023/03/21 02:35:22;;;;;;;6.70;1.95;;;9.00;92.20;;;;;;4984526;28;87354;-73
2023/03/21 02:37:58;;;;;;;4.65;2.30;;;8.90;92.00;;;;;;4977854;28;87507;-72
2023/03/21 02:40:31;;;;;;;7.45;2.25;;;9.00;92.00;;;;;;4987732;28;88683;-72
2023/03/21 02:43:26;;;;;;;5.93;2.65;;;8.90;92.00;;;;;;4976202;28;88203;-72
2023/03/21 02:46:25;;;;;;;5.35;2.75;;;8.90;92.10;;;;;;4977398;28;86968;-72
2023/03/21 02:49:20;;;;;;;5.22;2.70;;;8.80;92.30;;;;;;4972233;28;88510;-72
2023/03/21 02:51:48;;;;;;;5.18;2.58;;;8.80;92.40;;;;;;4974835;28;88815;-72
2023/03/21 02:54:18;;;;;;;8.00;2.70;;;8.80;92.60;;;;;;4996818;28;87921;-72
2023/03/21 02:56:47;;;;;;;6.53;2.47;;;8.70;92.70;;;;;;4983974;28;87347;-72
2023/03/21 02:59:15;;;;;;;6.07;2.90;;;8.70;92.80;;;;;;4977917;28;86889;-73
2023/03/21 03:01:41;;;;;;;7.15;2.72;;;8.60;93.20;;;;;;4975228;28;87374;-72
2023/03/21 03:04:21;;;;;;;6.07;2.60;;;8.60;93.20;;;;;;4978665;28;87592;-72
2023/03/21 03:07:11;;;;;;;8.05;2.72;;;8.60;93.20;;;;;;4966426;28;88129;-72
2023/03/21 03:09:56;;;;;;;4.88;2.63;;;8.50;93.30;;;;;;4975990;28;87470;-73
2023/03/21 03:12:33;;;;;;;8.82;2.75;;;8.50;93.50;;;;;;4976218;28;87848;-71
2023/03/21 03:15:28;;;;;;;6.60;2.53;;;8.40;93.80;;;;;;4979966;28;87389;-69
2023/03/21 03:18:25;;;;;;;5.57;2.75;;;8.40;94.00;;;;;;4977623;28;87311;-71
2023/03/21 03:21:21;;;;;;;7.97;2.88;;;8.30;94.30;;;;;;4970574;28;87324;-73
2023/03/21 03:23:56;;;;;;;5.57;2.72;;;8.30;94.50;;;;;;4981875;28;87534;-71
2023/03/21 03:26:39;;;;;;;5.68;2.35;;;8.30;94.70;;;;;;4974272;28;87706;-70
2023/03/21 03:29:16;;;;;;;7.43;2.78;;;8.30;94.80;;;;;;4975585;28;87432;-73
2023/03/21 03:31:47;;;;;;;;;;;8.20;95.00;;;;;;4977465;28;87537;-72
2023/03/21 03:34:19;;;;;;;5.10;2.47;;;8.20;95.30;;;;;;4971355;28;89680;-71
2023/03/21 03:36:50;;;;;;;7.28;2.47;;;8.20;95.30;;;;;;4971054;28;88274;-70
2023/03/21 03:39:17;;;;;;;6.82;2.55;;;8.20;95.40;;;;;;4968695;28;87479;-71
2023/03/21 03:42:04;;;;;;;7.03;2.20;;;8.10;95.40;;;;;;4976922;28;87459;-71
2023/03/21 03:44:34;;;;;;;8.68;2.63;;;8.20;95.20;;;;;;4972561;28;87807;-70
2023/03/21 03:47:26;;;;;;;8.55;2.97;;;8.20;95.10;;;;;;4982119;28;87774;-73
2023/03/21 03:50:13;;;;;;;8.80;2.67;;;8.20;95.00;;;;;;4971933;28;88613;-72
2023/03/21 03:52:44;;;;;;;6.90;2.70;;;8.30;94.90;;;;;;4978364;28;86679;-73
2023/03/21 03:55:14;;;;;;;4.15;2.03;;;8.30;94.70;;;;;;4975371;28;87975;-72
2023/03/21 03:57:40;;;;;;;4.88;2.42;;;8.40;94.70;;;;;;4974641;28;88410;-71
2023/03/21 04:00:17;;;;;;;5.10;2.75;;;8.40;94.40;;;;;;4984948;28;88452;-74
2023/03/21 04:02:44;;;;;;;6.45;2.65;;;8.40;94.20;;;;;;4988971;28;87656;-71
2023/03/21 04:05:11;;;;;;;6.25;3.00;;;8.50;94.00;;;;;;4981616;28;88294;-73
2023/03/21 04:07:37;;;;;;;6.05;3.22;;;8.50;94.00;;;;;;4990545;28;88065;-73
2023/03/21 04:10:03;;;;;;;6.07;2.75;;;8.50;93.90;;;;;;4967338;28;87265;-73
2023/03/21 04:12:29;;;;;;;6.05;2.75;;;8.50;93.80;;;;;;4971738;28;87349;-72
2023/03/21 04:14:55;;;;;;;6.63;3.47;;;8.50;93.60;;;;;;4973373;28;87622;-72
2023/03/21 04:17:21;;;;;;;7.68;3.63;;;8.50;93.80;;;;;;4965671;28;87565;-72
2023/03/21 04:19:47;;;;;;;6.07;3.13;;;8.40;94.00;;;;;;4987156;28;87152;-71
2023/03/21 04:22:13;;;;;;;6.70;3.15;;;8.40;94.00;;;;;;4995463;28;87444;-72
2023/03/21 04:24:39;;;;;;;6.45;3.22;;;8.40;94.00;;;;;;4987778;28;88987;-72
2023/03/21 04:27:05;;;;;;;5.75;2.70;;;8.30;94.10;;;;;;4983363;28;87188;-71
2023/03/21 04:29:31;;;;;;;5.38;2.65;;;8.30;94.30;;;;;;4983639;28;87406;-71
2023/03/21 04:31:58;;;;;;;9.13;3.10;;;8.30;94.30;;;;;;4978944;28;87677;-70
2023/03/21 04:34:26;;;;;;;5.35;2.50;;;8.30;94.20;;;;;;4978844;28;87665;-70
2023/03/21 04:36:53;;;;;;;5.22;2.72;;;8.20;94.50;;;;;;4993999;28;88275;-72
2023/03/21 04:39:19;;;;;;;4.95;2.60;;;8.20;94.80;;;;;;4977903;28;87598;-72
2023/03/21 04:41:45;;;;;;;5.50;2.28;;;8.10;94.80;;;;;;4996338;28;86664;-72
2023/03/21 04:44:13;;;;;;;6.93;2.60;;;8.10;94.90;;;;;;4996092;28;87950;-72
2023/03/21 04:46:39;;;;;;;8.43;2.70;;;8.10;94.80;;;;;;4975303;28;87825;-72
2023/03/21 04:49:05;;;;;;;4.70;2.47;;;8.10;95.10;;;;;;4970313;28;88607;-73
2023/03/21 04:51:31;;;;;;;7.47;2.90;;;8.00;95.20;;;;;;4961563;28;88608;-73
2023/03/21 04:53:57;;;;;;;7.45;2.88;;;8.00;95.30;;;;;;4962251;28;87632;-72
2023/03/21 04:56:31;;;;;;;5.57;2.25;;;8.00;95.60;;;;;;4963098;28;88783;-72
2023/03/21 04:59:01;;;;;;;4.75;2.40;;;7.90;96.00;;;;;;4955104;28;88131;-74
2023/03/21 05:01:30;;;;;;;5.88;2.40;;;7.90;96.20;;;;;;4964516;28;89240;-72
2023/03/21 05:04:03;;;;;;;5.82;2.80;;;7.90;96.40;;;;;;4961382;28;89417;-73
2023/03/21 05:06:28;;;;;;;4.68;2.45;;;7.90;96.50;;;;;;4963763;28;87991;-73
2023/03/21 05:08:58;;;;;;;6.75;2.70;;;7.90;96.50;;;;;;4966817;28;87542;-72
2023/03/21 05:11:26;;;;;;;7.13;2.67;;;7.90;96.60;;;;;;4977166;28;87073;-72
2023/03/21 05:13:51;;;;;;;6.18;2.65;;;8.00;96.60;;;;;;4989878;28;89690;-72
2023/03/21 05:16:17;;;;;;;6.50;3.13;;;8.00;96.50;;;;;;4990108;28;88981;-71
2023/03/21 05:18:43;;;;;;;6.90;2.53;;;8.00;96.40;;;;;;4990048;28;88082;-70
2023/03/21 05:21:12;;;;;;;6.97;2.88;;;8.00;96.50;;;;;;4976281;28;87584;-73
2023/03/21 05:23:37;;;;;;;9.45;2.72;;;8.00;96.70;;;;;;4989627;28;88081;-73
2023/03/21 05:26:08;;;;;;;4.95;2.25;;;7.90;97.10;;;;;;4992649;28;88255;-73
2023/03/21 05:28:35;;;;;;;;;;;7.90;97.20;;;;;;4967031;28;87785;-73
2023/03/21 05:31:04;;;;;;;5.40;2.35;;;8.00;97.00;;;;;;4988303;28;87085;-73
2023/03/21 05:33:31;;;;;;;4.38;2.35;;;8.00;96.70;;;;;;4978307;28;88135;-73
2023/03/21 05:35:57;;;;;;;6.75;2.25;;;8.10;96.50;;;;;;4984203;28;87354;-73
2023/03/21 05:38:23;;;;;;;5.25;2.50;;;8.20;96.10;;;;;;4980230;28;88343;-73
2023/03/21 05:40:50;;;;;;;9.63;2.47;;;8.30;95.70;;;;;;4973111;28;87056;-73
2023/03/21 05:43:16;;;;;;;6.18;2.50;;;8.30;95.40;;;;;;4980281;28;88426;-72
2023/03/21 05:45:42;;;;;;;6.93;2.10;;;8.40;95.20;;;;;;4972210;28;88678;-73
2023/03/21 05:48:08;;;;;;;5.20;2.15;;;8.50;94.70;;;;;;4979428;28;88275;-72
2023/03/21 05:50:33;;;;;;;8.95;2.75;;;8.50;94.60;;;;;;4981171;28;87419;-72
2023/03/21 05:52:59;;;;;;;6.22;2.95;;;8.70;94.40;;;;;;4975656;28;88362;-73
2023/03/21 05:55:25;;;;;;;6.97;2.90;;;8.70;94.30;;;;;;4980936;28;87815;-72
2023/03/21 05:57:51;;;;;;;7.22;3.03;;;8.70;94.20;;;;;;4974170;28;87349;-72
2023/03/21 06:00:17;;;;;;;8.80;3.03;;;8.70;94.40;;;;;;4973042;28;87066;-71
2023/03/21 06:02:43;;;;;;;13.40;3.00;;;8.80;93.80;;;;;;4974250;28;89054;-71
2023/03/21 06:05:09;;;;;;;6.80;2.55;;;8.80;93.70;;;;;;4979096;28;89385;-71
2023/03/21 06:07:35;;;;;;;5.75;2.72;;;8.90;93.50;;;;;;4976302;28;87413;-72
2023/03/21 06:10:03;;;;;;;7.95;2.40;;;8.90;93.30;;;;;;4966565;28;87515;-73
2023/03/21 06:12:29;;;;;;;7.85;2.25;;;9.00;93.00;;;;;;4964049;28;87733;-72
2023/03/21 06:14:55;;;;;;;10.82;2.20;;;9.10;92.70;;;;;;4971837;28;88009;-70
2023/03/21 06:17:21;;;;;;;4.85;2.25;;;9.20;92.40;;;;;;4958007;28;87471;-71
2023/03/21 06:19:46;;;;;;;5.32;2.45;;;9.20;92.50;;;;;;4963855;28;86433;-70
2023/03/21 06:22:12;;;;;;;5.85;2.05;;;9.30;92.30;;;;;;4970939;28;88204;-73
2023/03/21 06:24:38;;;;;;;8.40;2.38;;;9.40;92.20;;;;;;4968861;28;87491;-72
2023/03/21 06:27:04;;;;;;;10.73;2.38;;;9.40;92.10;;;;;;4968358;28;89874;-72
2023/03/21 06:29:30;;;;;;;7.65;2.58;;;9.60;91.90;;;;;;4952882;28;87603;-70
2023/03/21 06:31:56;;;;;;;8.35;3.00;;;9.70;92.10;;;;;;4964904;28;89106;-72
2023/03/21 06:34:22;;;;;;;8.68;3.65;;;9.90;91.90;;;;;;4973149;28;88047;-72
2023/03/21 06:36:47;;;;;;;7.88;3.03;;;10.10;91.70;;;;;;4957551;28;89926;-72
2023/03/21 06:39:14;;;;;;;9.48;3.72;;;10.20;91.00;;;;;;4977389;28;87305;-72
2023/03/21 06:41:40;;;;;;;10.35;3.25;;;10.40;91.20;;;;;;4976678;28;88002;-71
2023/03/21 06:44:06;;;;;;;9.35;3.08;;;10.60;90.60;;;;;;4979723;28;88728;-72
2023/03/21 06:46:32;;;;;;;7.53;3.03;;;10.70;90.20;;;;;;4959528;28;88320;-73
2023/03/21 06:48:58;;;;;;;8.82;3.55;;;10.70;89.70;;;;;;4956501;28;88196;-72
2023/03/21 06:51:24;;;;;;;6.25;3.13;;;10.80;89.70;;;;;;4961818;28;90328;-72
2023/03/21 06:53:49;;;;;;;7.00;3.42;;;10.90;90.20;;;;;;4957197;28;89309;-72
2023/03/21 06:56:15;;;;;;;6.82;2.95;;;10.90;89.80;;;;;;4953916;28;90321;-72
2023/03/21 06:58:41;;;;;;;7.22;2.95;;;11.00;90.00;;;;;;4950524;28;89480;-72
2023/03/21 07:01:07;;;;;;;6.85;2.72;;;11.10;89.80;;;;;;4959263;28;87459;-70
2023/03/21 07:03:33;;;;;;;5.13;2.15;;;11.20;89.00;;;;;;4963663;28;89471;-72
2023/03/21 07:06:08;;;;;;;5.25;2.17;;;11.40;88.30;;;;;;4969783;28;87602;-72
2023/03/21 07:08:34;;;;;;;4.68;2.40;;;11.50;88.40;;;;;;4960235;28;86907;-71
2023/03/21 07:11:00;;;;;;;5.60;2.08;;;11.60;87.20;;;;;;4967726;28;88212;-71
2023/03/21 07:13:25;;;;;;;4.15;2.15;;;11.70;85.80;;;;;;4958952;28;87560;-70
2023/03/21 07:15:53;;;;;;;5.32;2.45;;;11.80;86.00;;;;;;4966157;28;88265;-72
2023/03/21 07:18:19;;;;;;;6.28;2.30;;;12.00;86.00;;;;;;4964595;28;87462;-73
2023/03/21 07:20:52;;;;;;;6.60;2.20;;;12.30;84.60;;;;;;4968407;28;88576;-71
2023/03/21 07:23:18;;;;;;;7.10;2.20;;;12.70;84.20;;;;;;4971733;28;88870;-73
2023/03/21 07:25:46;;;;;;;5.63;1.95;;;13.00;81.80;;;;;;4963890;28;87116;-73
2023/03/21 07:28:12;;;;;;;5.60;2.10;;;13.30;80.20;;;;;;4974435;28;87387;-72
2023/03/21 07:30:38;;;;;;;4.75;1.90;;;13.60;78.40;;;;;;4966927;28;88185;-72
2023/03/21 07:33:04;;;;;;;6.95;2.33;;;13.80;77.70;;;;;;4972990;28;88820;-73
2023/03/21 07:35:30;;;;;;;3.67;1.88;;;14.20;75.80;;;;;;4957644;28;87615;-69
2023/03/21 07:37:56;;;;;;;3.78;1.88;;;14.60;75.70;;;;;;4964059;28;87078;-71
2023/03/21 07:40:21;;;;;;;3.13;1.65;;;15.90;74.00;;;;;;4960867;28;90038;-72
2023/03/21 07:42:49;;;;;;;5.15;1.48;;;17.00;68.60;;;;;;4973744;28;88123;-71
2023/03/21 07:45:19;;;;;;;4.53;1.70;;;19.20;64.60;;;;;;4965107;28;87673;-72
2023/03/21 07:47:46;;;;;;;7.25;1.98;;;21.20;58.70;;;;;;4966047;28;87954;-73
2023/03/21 07:50:12;;;;;;;7.82;2.35;;;22.90;54.40;;;;;;4971309;28;87685;-72
2023/03/21 07:52:38;;;;;;;6.40;1.85;;;24.00;50.80;;;;;;4972011;28;87768;-72
2023/03/21 07:55:04;;;;;;;3.90;1.90;;;25.00;48.90;;;;;;4973246;28;87331;-72
2023/03/21 07:57:30;;;;;;;4.82;2.03;;;26.10;47.40;;;;;;4972568;28;86747;-72
2023/03/21 07:59:56;;;;;;;3.40;2.28;;;27.30;42.80;;;;;;4969758;28;88874;-72
2023/03/21 08:02:21;;;;;;;3.67;2.35;;;27.90;42.90;;;;;;4960642;28;87658;-73
2023/03/21 08:04:47;;;;;;;5.50;2.20;;;28.40;42.50;;;;;;4974956;28;88591;-72
2023/03/21 08:07:13;;;;;;;4.90;2.70;;;29.70;40.10;;;;;;4970762;28;87849;-73
2023/03/21 08:09:38;;;;;;;4.90;2.55;;;30.60;38.60;;;;;;4971645;28;88279;-72
2023/03/21 08:12:07;;;;;;;4.50;3.22;;;31.60;38.60;;;;;;4959850;28;88705;-72
2023/03/21 08:14:33;;;;;;;5.13;3.00;;;32.10;37.50;;;;;;4964981;28;88101;-74
2023/03/21 08:16:58;;;;;;;3.53;2.78;;;32.10;36.40;;;;;;4965709;28;88752;-73
2023/03/21 08:19:25;;;;;;;4.65;2.42;;;33.30;36.10;;;;;;4978197;28;87502;-70
2023/03/21 08:21:52;;;;;;;5.35;3.00;;;34.40;34.30;;;;;;4977313;28;87147;-70
2023/03/21 08:24:18;;;;;;;6.00;4.10;;;35.10;33.70;;;;;;4967196;28;87353;-70
2023/03/21 08:26:44;;;;;;;3.25;2.42;;;35.80;33.30;;;;;;4965603;28;89818;-70
2023/03/21 08:29:13;;;;;;;5.00;3.28;;;36.00;32.50;;;;;;4963885;28;89026;-70
2023/03/21 08:31:40;;;;;;;4.40;3.38;;;36.30;33.00;;;;;;4981600;28;88827;-70
2023/03/21 08:34:06;;;;;;;4.10;3.38;;;36.20;31.80;;;;;;4968399;28;88732;-70
2023/03/21 08:36:35;;;;;;;4.05;2.67;;;36.30;32.80;;;;;;4971386;28;87399;-71
2023/03/21 08:39:04;;;;;;;3.67;3.35;;;37.30;30.60;;;;;;4962212;28;87678;-70
2023/03/21 08:41:36;;;;;;;3.55;2.97;;;36.70;30.00;;;;;;4974351;28;88375;-70
2023/03/21 08:44:04;;;;;;;4.47;3.10;;;36.90;30.10;;;;;;4969074;28;87148;-70
2023/03/21 08:46:30;;;;;;;6.10;2.40;;;37.20;30.00;;;;;;4978877;28;86660;-70
2023/03/21 08:48:56;;;;;;;3.03;2.35;;;35.90;29.90;;;;;;4979697;28;88080;-70
2023/03/21 08:51:22;;;;;;;3.95;2.20;;;35.70;29.80;;;;;;4971705;28;87965;-70
2023/03/21 08:53:51;;;;;;;2.25;1.85;;;35.30;29.60;;;;;;4977926;28;88414;-72
2023/03/21 08:56:17;;;;;;;2.60;1.40;;;33.80;29.60;;;;;;4977902;28;87518;-72
2023/03/21 08:58:43;;;;;;;2.55;1.13;;;32.20;31.00;;;;;;4976316;28;87752;-71
2023/03/21 09:01:14;;;;;;;4.65;1.83;;;30.90;32.40;;;;;;4968701;28;87999;-72
2023/03/21 09:03:41;;;;;;;3.00;1.83;;;30.40;33.30;;;;;;4966934;28;87262;-71
2023/03/21 09:06:10;;;;;;;3.65;1.70;;;30.60;33.20;;;;;;4977996;28;87423;-71
2023/03/21 09:08:37;;;;;;;4.72;1.48;;;30.30;33.30;;;;;;4975950;28;87134;-71
2023/03/21 09:11:03;;;;;;;3.10;1.25;;;29.60;33.80;;;;;;4978421;28;87309;-71
2023/03/21 09:13:28;;;;;;;3.17;1.60;;;28.90;33.80;;;;;;4977149;28;87663;-72
2023/03/21 09:15:56;;;;;;;2.10;1.33;;;28.50;35.00;;;;;;4978413;28;88245;-71
2023/03/21 09:18:43;;;;;;;2.40;1.10;;;28.40;34.10;;;;;;4975120;28;88617;-72
2023/03/21 09:21:11;;;;;;;2.97;1.38;;;28.00;34.90;;;;;;4969604;28;89935;-71
2023/03/21 09:23:38;;;;;;;3.83;1.42;;;27.50;36.20;;;;;;4999388;28;88277;-72
2023/03/21 09:26:04;;;;;;;2.90;1.88;;;27.70;36.10;;;;;;4987698;28;87444;-71
2023/03/21 09:28:30;;;;;;;4.45;2.67;;;29.00;38.90;;;;;;4977506;28;87630;-72
2023/03/21 09:30:57;;;;;;;4.05;2.13;;;28.70;38.60;;;;;;4978443;28;88177;-72
2023/03/21 09:33:24;;;;;;;6.07;2.78;;;27.90;40.40;;;;;;4976294;28;87662;-71
2023/03/21 09:35:50;;;;;;;5.32;2.75;;;27.70;40.30;;;;;;4969778;28;86733;-71
2023/03/21 09:38:16;;;;;;;5.05;2.17;;;27.50;40.30;;;;;;4969602;28;88103;-70
2023/03/21 09:40:51;;;;;;;4.22;2.08;;;27.40;40.50;;;;;;4973268;28;87375;-71
2023/03/21 09:43:29;;;;;;;3.22;2.10;;;27.80;40.30;;;;;;4969983;28;88410;-70
2023/03/21 09:46:09;;;;;;;3.75;2.13;;;27.40;40.80;;;;;;4976417;28;87396;-71
2023/03/21 09:48:53;;;;;;;4.75;2.33;;;27.60;40.40;;;;;;4977139;28;89441;-71
2023/03/21 09:51:20;;;;;;;3.90;2.75;;;27.40;41.10;;;;;;4974719;28;88007;-70
2023/03/21 09:53:50;;;;;;;3.72;2.00;;;26.90;40.30;;;;;;4971885;28;87480;-70
2023/03/21 09:56:16;;;;;;;3.70;2.50;;;27.30;40.70;;;;;;4981710;28;87231;-71
2023/03/21 09:58:51;;;;;;;3.22;2.40;;;28.30;40.70;;;;;;4998460;28;88014;-71
2023/03/21 10:01:31;;;;;;;3.95;2.72;;;30.50;37.30;;;;;;4981973;28;87706;-71
2023/03/21 10:04:00;;;;;;;4.00;2.60;;;30.80;36.70;;;;;;4978868;28;87618;-71
2023/03/21 10:06:30;;;;;;;4.15;2.65;;;29.50;37.00;;;;;;4977521;28;87086;-71
2023/03/21 10:09:06;;;;;;;5.50;2.75;;;28.50;38.00;;;;;;4977142;28;88748;-71
2023/03/21 10:11:49;;;;;;;4.00;2.70;;;28.00;38.50;;;;;;4973944;28;89377;-71
2023/03/21 10:14:24;;;;;;;6.32;3.30;;;27.30;38.40;;;;;;4975959;28;87312;-70
2023/03/21 10:16:58;;;;;;;7.97;2.67;;;26.70;40.80;;;;;;4978018;28;87500;-70
2023/03/21 10:19:26;;;;;;;6.68;2.28;;;25.90;39.80;;;;;;4978042;28;88637;-71
2023/03/21 10:21:52;;;;;;;4.90;2.40;;;25.50;40.50;;;;;;4973230;28;87773;-70
2023/03/21 10:24:21;;;;;;;3.55;2.63;;;25.70;40.60;;;;;;4974884;28;87364;-71
2023/03/21 10:26:49;;;;;;;5.13;2.67;;;25.60;40.20;;;;;;4970694;28;89154;-71
2023/03/21 10:29:17;;;;;;;3.28;2.13;;;26.00;40.10;;;;;;4977665;28;87750;-72
2023/03/21 10:31:44;;;;;;;4.55;2.58;;;26.60;40.70;;;;;;4965312;28;88131;-72
2023/03/21 10:34:35;;;;;;;3.50;2.40;;;26.50;40.20;;;;;;4968565;28;90291;-72
2023/03/21 10:37:03;;;;;;;3.50;2.17;;;26.30;40.80;;;;;;4969441;28;90589;-71
2023/03/21 10:39:35;;;;;;;3.17;2.15;;;25.60;41.30;;;;;;4975134;28;87875;-72
2023/03/21 10:42:01;;;;;;;4.38;2.22;;;25.20;43.30;;;;;;4967055;28;87831;-69
2023/03/21 10:44:34;;;;;;;6.32;2.90;;;25.10;43.90;;;;;;4970094;28;87562;-70
2023/03/21 10:47:07;;;;;;;5.32;2.55;;;24.80;42.70;;;;;;4960390;28;87522;-72
2023/03/21 10:49:34;;;;;;;3.58;2.17;;;24.50;44.10;;;;;;4961535;28;87646;-70
2023/03/21 10:52:09;;;;;;;5.00;2.78;;;24.20;44.10;;;;;;4970644;28;87362;-71
2023/03/21 10:54:36;;;;;;;4.55;2.97;;;23.90;45.90;;;;;;4960902;28;89460;-70
2023/03/21 10:57:21;;;;;;;3.85;2.28;;;23.50;45.70;;;;;;4963748;28;89583;-71
2023/03/21 10:59:56;;;;;;;3.58;2.35;;;23.50;47.40;;;;;;4964299;28;89488;-71
2023/03/21 11:02:32;;;;;;;5.50;2.08;;;23.50;46.50;;;;;;4973902;28;88378;-74
2023/03/21 11:05:05;;;;;;;3.92;2.10;;;23.00;45.10;;;;;;4972721;28;88017;-71
2023/03/21 11:07:31;;;;;;;3.08;2.03;;;22.50;46.90;;;;;;4972081;28;87387;-71
2023/03/21 11:09:59;;;;;;;4.88;2.38;;;22.20;48.60;;;;;;4978256;28;88224;-70
2023/03/21 11:12:47;;;;;;;2.92;2.22;;;22.00;49.60;;;;;;4970685;28;88329;-71
2023/03/21 11:15:29;;;;;;;5.13;1.83;;;21.50;48.80;;;;;;4974334;28;89269;-70
2023/03/21 11:18:11;;;;;;;3.92;1.92;;;21.10;49.40;;;;;;4983509;28;86764;-72
2023/03/21 11:21:08;;;;;;;4.72;2.40;;;20.80;50.20;;;;;;4970144;28;89461;-70
2023/03/21 11:23:38;;;;;;;4.15;2.63;;;20.50;51.50;;;;;;4970894;28;89781;-71
2023/03/21 11:26:09;;;;;;;5.55;2.15;;;20.10;52.80;;;;;;4972801;28;90101;-71
2023/03/21 11:28:40;;;;;;;3.92;2.42;;;19.80;51.90;;;;;;4972941;28;87670;-70
2023/03/21 11:31:10;;;;;;;4.22;2.00;;;19.60;52.60;;;;;;4970050;28;89055;-70
2023/03/21 11:33:44;;;;;;;3.38;2.20;;;19.40;53.10;;;;;;4971230;28;87927;-70
2023/03/21 11:36:19;;;;;;;4.50;2.53;;;19.30;52.60;;;;;;4973169;28;89216;-70
2023/03/21 11:39:02;;;;;;;5.00;2.47;;;19.30;53.10;;;;;;4970125;28;87739;-70
2023/03/21 11:41:33;;;;;;;3.58;2.17;;;19.30;53.40;;;;;;4965095;28;90301;-70
2023/03/21 11:44:00;;;;;;;3.35;2.10;;;19.10;54.20;;;;;;4970635;28;88337;-70
2023/03/21 11:46:27;;;;;;;3.85;2.10;;;19.10;54.60;;;;;;4964881;28;87224;-69
2023/03/21 11:48:54;;;;;;;3.70;2.20;;;19.00;52.60;;;;;;4970391;28;87546;-71
2023/03/21 11:51:49;;;;;;;4.38;2.25;;;19.10;53.70;;;;;;4979106;28;89562;-72
2023/03/21 11:54:18;;;;;;;3.60;2.10;;;19.20;53.00;;;;;;4975254;28;88940;-72
2023/03/21 11:56:51;;;;;;;5.78;2.15;;;19.20;54.80;;;;;;4974723;28;89364;-72
2023/03/21 11:59:45;;;;;;;3.95;2.30;;;19.20;52.90;;;;;;4974662;28;90317;-72
2023/03/21 12:02:46;;;;;;;3.38;1.73;;;19.10;55.40;;;;;;4980034;28;88469;-72
2023/03/21 12:05:25;;;;;;;3.78;1.98;;;19.20;54.10;;;;;;4997314;28;87701;-71
2023/03/21 12:08:20;;;;;;;4.68;1.83;;;19.40;51.60;;;;;;4979503;28;88500;-72
2023/03/21 12:11:00;;;;;;;5.03;2.00;;;19.50;53.30;;;;;;4980138;28;88065;-71
2023/03/21 12:13:45;;;;;;;4.00;2.38;;;19.60;52.90;;;;;;4965467;28;88123;-72
2023/03/21 12:16:21;;;;;;;3.28;1.75;;;19.50;52.20;;;;;;4974959;28;87380;-72
2023/03/21 12:19:05;;;;;;;3.90;1.92;;;19.70;54.80;;;;;;4965963;28;89064;-71
2023/03/21 12:21:43;;;;;;;3.67;2.25;;;19.80;53.30;;;;;;4969518;28;88758;-71
2023/03/21 12:24:18;;;;;;;4.45;2.20;;;19.80;50.50;;;;;;4971570;28;88845;-72
2023/03/21 12:26:53;;;;;;;4.38;2.15;;;19.90;52.00;;;;;;4978753;28;88242;-71
2023/03/21 12:29:40;;;;;;;4.03;2.47;;;19.90;50.20;;;;;;4972199;28;87210;-72
2023/03/21 12:32:32;;;;;;;3.45;2.17;;;19.90;52.00;;;;;;4974548;28;89065;-72
2023/03/21 12:35:26;;;;;;;6.53;2.35;;;19.80;51.60;;;;;;4970496;28;87646;-72
2023/03/21 12:38:26;;;;;;;3.97;1.90;;;19.70;51.50;;;;;;4972460;28;87354;-71
2023/03/21 12:40:57;;;;;;;3.88;1.98;;;19.60;51.70;;;;;;4973997;28;87439;-72
2023/03/21 12:43:44;;;;;;;3.67;2.15;;;19.80;50.60;;;;;;4970690;28;87875;-71
2023/03/21 12:46:26;;;;;;;5.15;2.28;;;19.80;49.90;;;;;;4976620;28;88387;-71
2023/03/21 12:48:55;;;;;;;3.75;2.20;;;19.90;49.00;;;;;;4972696;28;88838;-71
2023/03/21 12:51:28;;;;;;;4.03;1.90;;;19.90;51.30;;;;;;4974904;28;87665;-71
2023/03/21 12:54:09;;;;;;;5.03;2.25;;;19.80;50.80;;;;;;4976964;28;87656;-72
2023/03/21 12:57:07;;;;;;;4.50;1.85;;;19.80;51.10;;;;;;4966094;28;88112;-71
2023/03/21 13:00:09;;;;;;;5.45;2.22;;;19.80;50.40;;;;;;4970920;28;88913;-71
2023/03/21 13:02:41;;;;;;;5.78;1.90;;;19.60;50.60;;;;;;4978142;28;87778;-71
2023/03/21 13:05:20;;;;;;;3.10;1.65;;;19.60;50.90;;;;;;4969030;28;87076;-71
2023/03/21 13:07:53;;;;;;;4.95;2.00;;;19.40;51.60;;;;;;4976808;28;88159;-71
2023/03/21 13:10:20;;;;;;;3.65;1.90;;;19.30;51.50;;;;;;4975174;28;90058;-71
2023/03/21 13:13:12;;;;;;;5.55;1.75;;;19.30;51.70;;;;;;4976725;28;88362;-71
2023/03/21 13:15:49;;;;;;;4.65;1.60;;;19.10;51.80;;;;;;4971754;28;87414;-71